Time;durP1;ratioP1;P1;durP2;ratioP2;P2;SDS_P1;SDS_P2;PMS_P1;PMS_P2;Temp;Humidity;BMP_temperature;BMP_pressure;BME280_temperature;BME280_humidity;BME280_pressure;Samples;Min_cycle;Max_cycle;Signal;HPM_P1;HPM_P2
2023/04/13 00:00:29;;;;;;;;;;;;;;;3.13;66.03;94511.81;5075148;28;964;-52
2023/04/13 00:02:55;;;;;;;;;;;;;;;2.99;66.22;94503.38;5075216;28;1076;-53
2023/04/13 00:05:22;;;;;;;;;;;;;;;2.93;66.78;94507.38;5073350;28;1085;-53
2023/04/13 00:07:48;;;;;;;;;;;;;;;3.22;67.35;94517.25;5074370;28;1225;-53
2023/04/13 00:10:17;;;;;;;;;;;;;;;3.39;66.74;94518.44;5073961;28;1126;-52
2023/04/13 00:12:46;;;;;;;;;;;;;;;3.48;66.07;94520.28;5074803;28;1120;-53
2023/04/13 00:15:14;;;;;;;;;;;;;;;3.08;65.71;94513.16;5074534;28;1903;-52
2023/04/13 00:17:41;;;;;;;;;;;;;;;2.71;66.41;94517.13;5074552;28;1238;-53
2023/04/13 00:20:14;;;;;;;;;;;;;;;2.78;66.83;94520.06;5074597;28;1029;-53
2023/04/13 00:22:41;;;;;;;;;;;;;;;3.06;65.32;94520.38;5074484;28;1119;-53
2023/04/13 00:25:07;;;;;;;;;;;;;;;3.12;65.16;94520.69;5074513;28;1037;-53
2023/04/13 00:27:34;;;;;;;;;;;;;;;3.13;65.45;94517.09;5074710;28;968;-53
2023/04/13 00:30:00;;;;;;;;;;;;;;;3.11;66.69;94524.31;5074419;28;1052;-53
2023/04/13 00:32:26;;;;;;;;;;;;;;;3.02;65.94;94519.81;5074231;28;1036;-53
2023/04/13 00:34:52;;;;;;;;;;;;;;;2.54;66.58;94518.53;5074518;28;1985;-53
2023/04/13 00:37:19;;;;;;;;;;;;;;;2.41;67.73;94515.25;5074435;28;1067;-53
2023/04/13 00:39:45;;;;;;;;;;;;;;;2.46;67.43;94520.94;5074371;28;1000;-53
2023/04/13 00:42:11;;;;;;;;;;;;;;;2.21;68.15;94511.59;5088695;28;1369;-53
2023/04/13 00:44:38;;;;;;;;;;;;;;;2.05;68.76;94506.75;5093079;28;1108;-53
2023/04/13 00:47:07;;;;;;;;;;;;;;;2.16;69.19;94511.13;5094642;28;1031;-53
2023/04/13 00:49:33;;;;;;;;;;;;;;;2.45;69.31;94511.38;5094465;28;1027;-53
2023/04/13 00:52:00;;;;;;;;;;;;;;;2.39;67.85;94513.66;5080763;28;1076;-53
2023/04/13 00:54:28;;;;;;;;;;;;;;;2.02;68.99;94525.44;5073752;28;1991;-53
2023/04/13 00:56:57;;;;;;;;;;;;;;;1.91;69.13;94514.94;5073991;28;1028;-53
2023/04/13 00:59:28;;;;;;;;;;;;;;;1.86;70.01;94512.69;5073791;28;977;-53
2023/04/13 01:01:57;;;;;;;;;;;;;;;1.81;69.89;94520.13;5073645;28;1388;-53
2023/04/13 01:04:24;;;;;;;;;;;;;;;1.91;69.97;94512.28;5074010;28;1032;-52
2023/04/13 01:06:57;;;;;;;;;;;;;;;1.96;69.87;94520.69;5074021;28;1041;-53
2023/04/13 01:09:46;;;;;;;;;;;;;;;2.12;69.27;94514.97;5073924;28;1037;-53
2023/04/13 01:12:16;;;;;;;;;;;;;;;2.38;68.75;94520.75;5065298;28;1873;-53
2023/04/13 01:14:51;;;;;;;;;;;;;;;2.38;68.83;94518.13;5073835;28;1985;-53
2023/04/13 01:17:22;;;;;;;;;;;;;;;2.04;69.40;94518.25;5073533;28;1017;-53
2023/04/13 01:19:55;;;;;;;;;;;;;;;1.70;70.58;94525.41;5073899;28;1051;-53
2023/04/13 01:22:24;;;;;;;;;;;;;;;1.87;70.09;94516.97;5073739;28;1048;-53
2023/04/13 01:24:52;;;;;;;;;;;;;;;2.06;70.32;94524.22;5073449;28;1120;-53
2023/04/13 01:27:41;;;;;;;;;;;;;;;2.02;69.32;94527.25;5073436;28;996;-53
2023/04/13 01:30:09;;;;;;;;;;;;;;;1.93;69.67;94520.91;5063947;28;1698;-53
2023/04/13 01:32:37;;;;;;;;;;;;;;;1.90;70.15;94522.00;5073079;28;1556;-53
2023/04/13 01:35:05;;;;;;;;;;;;;;;2.15;69.25;94520.03;5073578;28;1992;-53
2023/04/13 01:37:32;;;;;;;;;;;;;;;2.05;69.48;94529.63;5073489;28;1048;-53
2023/04/13 01:39:58;;;;;;;;;;;;;;;2.00;70.40;94523.91;5072464;28;1071;-53
2023/04/13 01:42:24;;;;;;;;;;;;;;;2.18;69.76;94522.38;5088772;28;1284;-54
2023/04/13 01:44:50;;;;;;;;;;;;;;;2.30;69.09;94528.47;5092327;28;1112;-52
2023/04/13 01:47:19;;;;;;;;;;;;;;;1.93;69.68;94520.91;5093536;28;965;-53
2023/04/13 01:49:47;;;;;;;;;;;;;;;1.59;70.54;94522.78;5092169;28;1059;-53
2023/04/13 01:52:14;;;;;;;;;;;;;;;1.67;70.86;94525.63;5093418;28;1048;-53
2023/04/13 01:54:44;;;;;;;;;;;;;;;1.91;71.08;94520.19;5093420;28;1910;-54
2023/04/13 01:57:12;;;;;;;;;;;;;;;2.14;69.85;94523.59;5093546;28;969;-53
2023/04/13 01:59:38;;;;;;;;;;;;;;;2.15;69.17;94520.03;5093515;28;956;-53
2023/04/13 02:02:05;;;;;;;;;;;;;;;1.77;70.44;94521.31;5093201;28;1042;-53
2023/04/13 02:04:31;;;;;;;;;;;;;;;1.55;71.18;94533.56;5093119;28;1037;-53
2023/04/13 02:06:57;;;;;;;;;;;;;;;1.70;71.17;94539.41;5093266;28;1009;-53
2023/04/13 02:09:24;;;;;;;;;;;;;;;1.64;71.09;94533.81;5093336;28;1060;-53
2023/04/13 02:11:49;;;;;;;;;;;;;;;1.62;71.41;94533.09;5093079;28;1061;-53
2023/04/13 02:14:15;;;;;;;;;;;;;;;1.72;70.96;94537.50;5093356;28;1991;-53
2023/04/13 02:16:41;;;;;;;;;;;;;;;1.86;71.07;94536.41;5093363;28;1064;-53
2023/04/13 02:19:07;;;;;;;;;;;;;;;1.79;70.20;94537.84;5091803;28;964;-53
2023/04/13 02:21:33;;;;;;;;;;;;;;;1.81;70.57;94543.00;5093038;28;1011;-53
2023/04/13 02:24:00;;;;;;;;;;;;;;;1.69;70.77;94544.81;5093323;28;1027;-53
2023/04/13 02:26:26;;;;;;;;;;;;;;;1.40;71.67;94545.31;5091637;28;1049;-52
2023/04/13 02:28:52;;;;;;;;;;;;;;;1.43;72.09;94546.88;5093120;28;1059;-53
2023/04/13 02:31:18;;;;;;;;;;;;;;;1.66;71.50;94545.06;5092856;28;964;-53
2023/04/13 02:33:45;;;;;;;;;;;;;;;1.86;70.52;94546.94;5092783;28;1991;-53
2023/04/13 02:36:11;;;;;;;;;;;;;;;1.67;70.84;94547.59;5092967;28;1040;-52
2023/04/13 02:38:37;;;;;;;;;;;;;;;1.57;71.51;94551.88;5093059;28;1036;-53
2023/04/13 02:41:03;;;;;;;;;;;;;;;1.80;71.28;94550.06;5092723;28;1327;-53
2023/04/13 02:43:29;;;;;;;;;;;;;;;1.85;70.64;94544.44;5092530;28;1081;-53
2023/04/13 02:45:56;;;;;;;;;;;;;;;1.80;70.88;94543.94;5092795;28;1093;-53
2023/04/13 02:48:22;;;;;;;;;;;;;;;2.05;71.41;94541.03;5092659;28;1057;-53
2023/04/13 02:50:48;;;;;;;;;;;;;;;1.90;71.32;94553.66;5092792;28;1072;-53
2023/04/13 02:53:15;;;;;;;;;;;;;;;2.04;71.41;94549.06;5093527;28;1045;-53
2023/04/13 02:55:42;;;;;;;;;;;;;;;2.03;71.35;94552.66;5096470;28;1906;-53
2023/04/13 02:58:10;;;;;;;;;;;;;;;1.79;70.55;94563.38;5096424;28;1036;-53
2023/04/13 03:00:37;;;;;;;;;;;;;;;1.77;71.14;94570.56;5096288;28;1100;-53
2023/04/13 03:03:03;;;;;;;;;;;;;;;1.91;70.95;94576.41;5096260;28;968;-53
2023/04/13 03:05:32;;;;;;;;;;;;;;;1.79;71.81;94569.47;5096070;28;1025;-53
2023/04/13 03:07:58;;;;;;;;;;;;;;;1.70;71.29;94543.84;5096257;28;945;-52
2023/04/13 03:10:24;;;;;;;;;;;;;;;1.91;70.98;94578.19;5096332;28;1144;-54
2023/04/13 03:12:50;;;;;;;;;;;;;;;2.01;71.39;94578.31;5095967;28;1032;-52
2023/04/13 03:15:17;;;;;;;;;;;;;;;2.02;70.87;94570.28;5096150;28;2008;-53
2023/04/13 03:17:43;;;;;;;;;;;;;;;1.65;71.18;94569.72;5095880;28;972;-51
2023/04/13 03:20:15;;;;;;;;;;;;;;;1.84;71.94;94569.97;5095730;28;1120;-52
2023/04/13 03:22:44;;;;;;;;;;;;;;;1.90;71.02;94568.63;5096122;28;956;-52
2023/04/13 03:25:11;;;;;;;;;;;;;;;1.71;71.57;94567.47;5096039;28;1217;-53
2023/04/13 03:27:37;;;;;;;;;;;;;;;1.91;71.37;94570.28;5096078;28;1173;-52
2023/04/13 03:30:03;;;;;;;;;;;;;;;1.94;70.94;94567.44;5095571;28;1041;-52
2023/04/13 03:32:30;;;;;;;;;;;;;;;2.13;71.26;94578.16;5095577;28;1876;-52
2023/04/13 03:34:56;;;;;;;;;;;;;;;2.03;70.96;94573.75;5095516;28;1991;-53
2023/04/13 03:37:22;;;;;;;;;;;;;;;1.60;71.63;94571.91;5095385;28;1052;-53
2023/04/13 03:39:48;;;;;;;;;;;;;;;1.56;72.53;94579.22;5095692;28;996;-53
2023/04/13 03:42:14;;;;;;;;;;;;;;;1.50;72.16;94584.94;5095308;28;1292;-53
2023/04/13 03:44:40;;;;;;;;;;;;;;;1.51;72.20;94584.00;5095248;28;1108;-53
2023/04/13 03:47:08;;;;;;;;;;;;;;;1.67;72.21;94583.63;5095656;28;1044;-52
2023/04/13 03:49:34;;;;;;;;;;;;;;;1.66;72.57;94598.59;5095546;28;1023;-52
2023/04/13 03:52:00;;;;;;;;;;;;;;;1.56;72.46;94595.84;5095424;28;1059;-53
2023/04/13 03:54:26;;;;;;;;;;;;;;;1.69;71.98;94594.88;5095307;28;1914;-51
2023/04/13 03:56:52;;;;;;;;;;;;;;;1.74;72.29;94593.56;5095204;28;1008;-53
2023/04/13 03:59:18;;;;;;;;;;;;;;;1.57;71.93;94586.13;5095093;28;977;-52
2023/04/13 04:01:44;;;;;;;;;;;;;;;1.48;72.14;94595.63;5095357;28;982;-52
2023/04/13 04:04:10;;;;;;;;;;;;;;;1.27;72.96;94594.63;5094816;28;1002;-52
2023/04/13 04:06:36;;;;;;;;;;;;;;;1.15;73.17;94597.25;5095042;28;1055;-52
2023/04/13 04:09:03;;;;;;;;;;;;;;;1.34;73.37;94606.38;5095063;28;1002;-52
2023/04/13 04:11:29;;;;;;;;;;;;;;;1.53;72.95;94597.88;5094971;28;985;-52
2023/04/13 04:13:55;;;;;;;;;;;;;;;1.69;72.25;94603.63;5095048;28;1914;-52
2023/04/13 04:16:21;;;;;;;;;;;;;;;1.54;72.35;94605.69;5094749;28;1108;-52
2023/04/13 04:18:47;;;;;;;;;;;;;;;1.63;71.71;94601.50;5094689;28;1033;-52
2023/04/13 04:21:14;;;;;;;;;;;;;;;2.43;69.34;94603.03;5094853;28;984;-53
2023/04/13 04:23:40;;;;;;;;;;;;;;;3.22;66.89;94610.56;5094850;28;977;-53
2023/04/13 04:26:06;;;;;;;;;;;;;;;3.83;64.47;94603.63;5094655;28;1040;-52
2023/04/13 04:28:37;;;;;;;;;;;;;;;3.98;62.50;94618.16;5094444;28;1157;-53
2023/04/13 04:31:09;;;;;;;;;;;;;;;4.12;62.27;94619.59;5094576;28;1104;-53
2023/04/13 04:33:37;;;;;;;;;;;;;;;4.71;60.81;94627.66;5094324;28;1910;-53
2023/04/13 04:36:05;;;;;;;;;;;;;;;5.05;59.47;94620.13;5094693;28;953;-53
2023/04/13 04:38:31;;;;;;;;;;;;;;;5.31;58.10;94606.28;5094366;28;960;-53
2023/04/13 04:40:58;;;;;;;;;;;;;;;5.39;57.78;94614.38;5094201;28;1260;-53
2023/04/13 04:43:28;;;;;;;;;;;;;;;5.77;56.79;94620.56;5094061;28;1088;-53
2023/04/13 04:45:56;;;;;;;;;;;;;;;6.23;56.69;94619.69;5094246;28;1029;-53
2023/04/13 04:48:25;;;;;;;;;;;;;;;6.95;54.11;94624.28;5094389;28;1086;-53
2023/04/13 04:50:52;;;;;;;;;;;;;;;7.05;53.81;94625.03;5094230;28;968;-53
2023/04/13 04:53:18;;;;;;;;;;;;;;;6.91;53.91;94618.41;5093904;28;1171;-53
2023/04/13 04:55:45;;;;;;;;;;;;;;;7.14;54.13;94613.47;5094121;28;1926;-53
2023/04/13 04:58:11;;;;;;;;;;;;;;;7.42;52.69;94616.84;5094171;28;1112;-53
2023/04/13 05:00:37;;;;;;;;;;;;;;;7.22;53.33;94618.03;5094232;28;1119;-53
2023/04/13 05:03:03;;;;;;;;;;;;;;;6.74;54.63;94611.28;5094470;28;1056;-53
2023/04/13 05:05:30;;;;;;;;;;;;;;;6.32;56.58;94620.63;5093976;28;1081;-53
2023/04/13 05:07:56;;;;;;;;;;;;;;;5.68;58.39;94604.50;5094058;28;1053;-53
2023/04/13 05:10:23;;;;;;;;;;;;;;;5.50;60.46;94592.16;5093963;28;914;-53
2023/04/13 05:12:49;;;;;;;;;;;;;;;5.65;59.54;94609.25;5094287;28;1056;-53
2023/04/13 05:15:15;;;;;;;;;;;;;;;5.52;60.04;94608.75;5093491;28;2108;-53
2023/04/13 05:17:45;;;;;;;;;;;;;;;5.85;60.11;94607.41;5093239;28;1128;-53
2023/04/13 05:20:12;;;;;;;;;;;;;;;6.00;59.58;94600.66;5093721;28;995;-53
2023/04/13 05:22:38;;;;;;;;;;;;;;;6.11;59.73;94604.09;5093763;28;1121;-53
2023/04/13 05:25:05;;;;;;;;;;;;;;;6.32;57.63;94599.38;5093975;28;1056;-53
2023/04/13 05:27:31;;;;;;;;;;;;;;;6.48;58.17;94587.25;5093938;28;1039;-53
2023/04/13 05:29:57;;;;;;;;;;;;;;;6.43;57.16;94588.56;5093766;28;1045;-53
2023/04/13 05:32:23;;;;;;;;;;;;;;;6.48;56.62;94590.75;5092546;28;1046;-53
2023/04/13 05:34:50;;;;;;;;;;;;;;;6.87;56.31;94594.94;5093453;28;1985;-53
2023/04/13 05:37:16;;;;;;;;;;;;;;;7.23;55.65;94598.44;5093791;28;965;-53
2023/04/13 05:39:42;;;;;;;;;;;;;;;7.50;55.16;94593.97;5093644;28;1012;-53
2023/04/13 05:42:08;;;;;;;;;;;;;;;7.41;54.60;94596.56;5093712;28;1799;-54
2023/04/13 05:44:34;;;;;;;;;;;;;;;7.75;55.23;94594.97;5093287;28;1226;-54
2023/04/13 05:47:02;;;;;;;;;;;;;;;7.60;53.78;94603.50;5093801;28;1142;-53
2023/04/13 05:49:28;;;;;;;;;;;;;;;7.66;54.87;94599.38;5093311;28;1064;-54
2023/04/13 05:51:54;;;;;;;;;;;;;;;7.63;54.08;94603.19;5093360;28;1029;-53
2023/04/13 05:54:20;;;;;;;;;;;;;;;7.66;54.32;94601.22;5093301;28;1913;-54
2023/04/13 05:56:47;;;;;;;;;;;;;;;7.91;54.34;94596.88;5093604;28;1044;-54
2023/04/13 05:59:14;;;;;;;;;;;;;;;8.09;53.37;94610.13;5093281;28;1049;-54
2023/04/13 06:01:40;;;;;;;;;;;;;;;8.33;52.79;94610.22;5093531;28;1056;-54
2023/04/13 06:04:08;;;;;;;;;;;;;;;8.74;51.91;94606.88;5093358;28;952;-53
2023/04/13 06:06:34;;;;;;;;;;;;;;;8.91;50.33;94615.75;5092169;28;1292;-53
2023/04/13 06:09:01;;;;;;;;;;;;;;;8.87;51.28;94606.41;5093189;28;1100;-53
2023/04/13 06:11:26;;;;;;;;;;;;;;;8.89;51.07;94604.41;5093453;28;992;-54
2023/04/13 06:13:52;;;;;;;;;;;;;;;9.16;50.09;94601.44;5093231;28;1906;-54
2023/04/13 06:16:19;;;;;;;;;;;;;;;9.48;51.26;94601.59;5093133;28;1057;-55
2023/04/13 06:18:45;;;;;;;;;;;;;;;9.59;49.54;94606.59;5093120;28;1091;-54
2023/04/13 06:21:11;;;;;;;;;;;;;;;9.47;49.78;94603.44;5093041;28;1084;-54
2023/04/13 06:23:37;;;;;;;;;;;;;;;10.10;49.69;94607.16;5093098;28;1120;-54
2023/04/13 06:26:03;;;;;;;;;;;;;;;10.14;49.77;94603.16;5093505;28;1039;-53
2023/04/13 06:28:30;;;;;;;;;;;;;;;10.25;49.63;94604.63;5096174;28;1037;-53
2023/04/13 06:30:56;;;;;;;;;;;;;;;10.56;50.17;94606.53;5097292;28;1047;-53
2023/04/13 06:33:22;;;;;;;;;;;;;;;10.93;50.47;94602.34;5097287;28;1079;-53
2023/04/13 06:35:51;;;;;;;;;;;;;;;10.79;49.42;94603.91;5096851;28;1985;-54
2023/04/13 06:38:17;;;;;;;;;;;;;;;11.00;48.69;94602.44;5097013;28;1147;-53
2023/04/13 06:40:43;;;;;;;;;;;;;;;11.42;48.26;94599.31;5097080;28;1620;-54
2023/04/13 06:43:09;;;;;;;;;;;;;;;12.02;46.79;94597.59;5095624;28;1104;-55
2023/04/13 06:45:35;;;;;;;;;;;;;;;11.99;46.13;94606.03;5096650;28;1132;-55
2023/04/13 06:48:01;;;;;;;;;;;;;;;12.19;45.91;94603.63;5096761;28;1064;-55
2023/04/13 06:50:27;;;;;;;;;;;;;;;12.16;45.68;94605.81;5096627;28;977;-55
2023/04/13 06:52:53;;;;;;;;;;;;;;;12.58;44.26;94609.72;5096844;28;966;-54
2023/04/13 06:55:19;;;;;;;;;;;;;;;13.06;44.78;94615.44;5096396;28;1898;-54
2023/04/13 06:57:45;;;;;;;;;;;;;;;12.88;43.06;94614.00;5096791;28;957;-55
2023/04/13 07:00:13;;;;;;;;;;;;;;;12.82;43.65;94612.06;5096791;28;1036;-55
2023/04/13 07:02:40;;;;;;;;;;;;;;;13.33;44.20;94607.72;5095368;28;996;-55
2023/04/13 07:05:06;;;;;;;;;;;;;;;13.85;42.91;94601.97;5096361;28;969;-55
2023/04/13 07:07:32;;;;;;;;;;;;;;;14.01;42.03;94602.72;5096239;28;1983;-56
2023/04/13 07:09:58;;;;;;;;;;;;;;;13.98;42.50;94603.94;5096681;28;1020;-56
2023/04/13 07:12:24;;;;;;;;;;;;;;;14.08;42.09;94605.47;5096420;28;1001;-56
2023/04/13 07:14:51;;;;;;;;;;;;;;;14.58;40.14;94617.78;5096004;28;1898;-56
2023/04/13 07:17:17;;;;;;;;;;;;;;;14.66;37.95;94624.03;5095886;28;1175;-56
2023/04/13 07:19:45;;;;;;;;;;;;;;;14.55;37.26;94623.56;5096019;28;1112;-56
2023/04/13 07:22:11;;;;;;;;;;;;;;;14.57;37.59;94626.91;5096070;28;992;-56
2023/04/13 07:24:37;;;;;;;;;;;;;;;14.85;38.81;94617.91;5096093;28;1078;-55
2023/04/13 07:27:03;;;;;;;;;;;;;;;15.14;38.04;94616.78;5096192;28;1067;-56
2023/04/13 07:29:29;;;;;;;;;;;;;;;15.13;37.21;94617.00;5096146;28;1032;-55
2023/04/13 07:32:00;;;;;;;;;;;;;;;14.84;35.91;94622.47;5096202;28;1012;-56
2023/04/13 07:34:26;;;;;;;;;;;;;;;15.09;36.93;94605.78;5095963;28;1910;-55
2023/04/13 07:36:52;;;;;;;;;;;;;;;15.29;35.15;94605.00;5095768;28;1040;-55
2023/04/13 07:39:18;;;;;;;;;;;;;;;15.55;37.31;94601.53;5095219;28;1028;-55
2023/04/13 07:41:47;;;;;;;;;;;;;;;15.84;37.21;94607.59;5095643;28;1995;-55
2023/04/13 07:44:13;;;;;;;;;;;;;;;16.03;34.86;94603.25;5095452;28;1583;-55
2023/04/13 07:46:40;;;;;;;;;;;;;;;16.43;35.66;94608.59;5095726;28;973;-55
2023/04/13 07:49:06;;;;;;;;;;;;;;;16.40;34.98;94612.56;5095568;28;953;-55
2023/04/13 07:51:33;;;;;;;;;;;;;;;16.32;32.86;94616.31;5095436;28;1032;-55
2023/04/13 07:54:00;;;;;;;;;;;;;;;16.35;33.83;94613.19;5095753;28;1906;-55
2023/04/13 07:56:26;;;;;;;;;;;;;;;16.38;33.25;94606.53;5095408;28;1108;-55
2023/04/13 07:58:52;;;;;;;;;;;;;;;16.56;32.77;94609.41;5095518;28;1044;-53
2023/04/13 08:01:18;;;;;;;;;;;;;;;16.87;34.38;94604.38;5095286;28;1095;-54
2023/04/13 08:03:44;;;;;;;;;;;;;;;17.06;33.14;94605.34;5095298;28;988;-54
2023/04/13 08:06:10;;;;;;;;;;;;;;;16.91;33.20;94611.00;5095119;28;1001;-54
2023/04/13 08:08:36;;;;;;;;;;;;;;;17.08;33.98;94600.56;5095495;28;1012;-55
2023/04/13 08:11:02;;;;;;;;;;;;;;;16.85;32.75;94604.59;5095173;28;1111;-55
2023/04/13 08:13:29;;;;;;;;;;;;;;;16.97;33.88;94591.25;5095327;28;1085;-55
2023/04/13 08:15:56;;;;;;;;;;;;;;;17.69;32.90;94594.56;5095294;28;1910;-55
2023/04/13 08:18:31;;;;;;;;;;;;;;;17.70;33.96;94593.53;5094927;28;952;-55
2023/04/13 08:21:00;;;;;;;;;;;;;;;17.60;32.66;94592.34;5095281;28;1000;-57
2023/04/13 08:23:26;;;;;;;;;;;;;;;17.75;32.30;94595.56;5095058;28;969;-58
2023/04/13 08:25:52;;;;;;;;;;;;;;;17.99;34.09;94587.75;5095162;28;988;-57
2023/04/13 08:28:18;;;;;;;;;;;;;;;17.79;32.77;94583.25;5095119;28;997;-57
2023/04/13 08:30:44;;;;;;;;;;;;;;;18.15;33.34;94576.34;5094776;28;1132;-58
2023/04/13 08:33:11;;;;;;;;;;;;;;;18.20;33.79;94573.81;5094597;28;972;-57
2023/04/13 08:35:38;;;;;;;;;;;;;;;18.26;32.18;94578.31;5094819;28;1917;-58
2023/04/13 08:38:05;;;;;;;;;;;;;;;18.34;33.82;94567.22;5095022;28;953;-56
2023/04/13 08:40:38;;;;;;;;;;;;;;;18.57;32.75;94565.72;5094671;28;1539;-56
2023/04/13 08:43:05;;;;;;;;;;;;;;;18.77;32.79;94570.91;5094571;28;1120;-56
2023/04/13 08:45:31;;;;;;;;;;;;;;;18.72;33.68;94559.94;5094734;28;1050;-57
2023/04/13 08:47:57;;;;;;;;;;;;;;;19.14;32.01;94560.06;5088414;28;2601;-57
2023/04/13 08:50:27;;;;;;;;;;;;;;;19.42;32.10;94553.22;5073201;28;1042;-57
2023/04/13 08:52:54;;;;;;;;;;;;;;;19.76;31.87;94559.03;5074138;28;1035;-56
2023/04/13 08:55:20;;;;;;;;;;;;;;;19.79;30.83;94551.25;5073752;28;2001;-56
2023/04/13 08:57:49;;;;;;;;;;;;;;;19.72;31.72;94542.38;5074297;28;961;-56
2023/04/13 09:00:18;;;;;;;;;;;;;;;19.87;29.81;94555.50;5074154;28;1033;-56
2023/04/13 09:02:47;;;;;;;;;;;;;;;19.51;31.10;94559.97;5073847;28;1037;-56
2023/04/13 09:05:16;;;;;;;;;;;;;;;19.48;30.77;94538.75;5073813;28;1149;-56
2023/04/13 09:07:50;;;;;;;;;;;;;;;19.72;31.53;94539.66;5073895;28;1032;-57
2023/04/13 09:10:16;;;;;;;;;;;;;;;19.75;31.63;94532.94;5073692;28;1973;-57
2023/04/13 09:12:42;;;;;;;;;;;;;;;20.22;32.26;94525.69;5073662;28;949;-56
2023/04/13 09:15:10;;;;;;;;;;;;;;;20.47;31.00;94528.16;5073737;28;1913;-57
2023/04/13 09:17:36;;;;;;;;;;;;;;;20.80;31.15;94523.16;5073684;28;969;-57
2023/04/13 09:20:11;;;;;;;;;;;;;;;20.66;30.75;94526.16;5073528;28;1081;-56
2023/04/13 09:22:37;;;;;;;;;;;;;;;20.55;30.76;94520.72;5073525;28;1271;-54
2023/04/13 09:25:04;;;;;;;;;;;;;;;20.69;29.77;94511.25;5073500;28;1041;-55
2023/04/13 09:27:30;;;;;;;;;;;;;;;20.70;28.76;94507.47;5073419;28;1072;-55
2023/04/13 09:29:57;;;;;;;;;;;;;;;20.69;30.31;94503.09;5073704;28;969;-55
2023/04/13 09:32:24;;;;;;;;;;;;;;;20.51;30.56;94509.50;5073204;28;1116;-55
2023/04/13 09:34:56;;;;;;;;;;;;;;;20.80;30.76;94496.00;5073362;28;1995;-55
2023/04/13 09:37:22;;;;;;;;;;;;;;;21.04;29.75;94504.91;5073116;28;1045;-55
2023/04/13 09:39:48;;;;;;;;;;;;;;;21.17;30.57;94490.19;5073220;28;1025;-55
2023/04/13 09:42:17;;;;;;;;;;;;;;;21.56;29.58;94488.47;5088501;28;1531;-56
2023/04/13 09:44:43;;;;;;;;;;;;;;;21.34;29.19;94491.06;5093359;28;1162;-55
2023/04/13 09:47:11;;;;;;;;;;;;;;;21.21;28.68;94491.38;5093703;28;1012;-55
2023/04/13 09:49:38;;;;;;;;;;;;;;;21.10;29.42;94484.09;5093475;28;1052;-56
2023/04/13 09:52:05;;;;;;;;;;;;;;;21.64;30.37;94474.47;5093465;28;1051;-55
2023/04/13 09:54:32;;;;;;;;;;;;;;;21.98;29.28;94471.72;5093351;28;1913;-56
2023/04/13 09:56:58;;;;;;;;;;;;;;;22.13;29.10;94462.16;5093600;28;985;-56
2023/04/13 09:59:26;;;;;;;;;;;;;;;21.77;28.87;94472.50;5093591;28;1187;-55
2023/04/13 10:01:55;;;;;;;;;;;;;;;21.42;28.39;94468.91;5093854;28;1179;-55
2023/04/13 10:04:21;;;;;;;;;;;;;;;21.38;29.21;94464.19;5097556;28;1056;-55
2023/04/13 10:06:48;;;;;;;;;;;;;;;21.46;28.83;94461.13;5097848;28;1008;-55
2023/04/13 10:09:14;;;;;;;;;;;;;;;21.31;28.72;94461.63;5097308;28;969;-57
2023/04/13 10:11:43;;;;;;;;;;;;;;;21.36;28.17;94458.16;5097634;28;989;-57
2023/04/13 10:14:20;;;;;;;;;;;;;;;21.62;29.10;94457.56;5097311;28;1984;-57
2023/04/13 10:16:49;;;;;;;;;;;;;;;21.98;29.01;94449.97;5097370;28;1108;-57
2023/04/13 10:19:17;;;;;;;;;;;;;;;22.20;28.53;94450.00;5097550;28;1292;-57
2023/04/13 10:21:44;;;;;;;;;;;;;;;22.25;27.66;94440.28;5097228;28;886;-57
2023/04/13 10:24:11;;;;;;;;;;;;;;;22.47;28.98;94430.25;5097052;28;1138;-57
2023/04/13 10:26:38;;;;;;;;;;;;;;;22.39;28.28;94442.41;5097486;28;985;-57
2023/04/13 10:29:05;;;;;;;;;;;;;;;21.94;29.48;94432.47;5097243;28;1059;-57
2023/04/13 10:31:38;;;;;;;;;;;;;;;21.97;28.12;94425.75;5096901;28;1280;-58
2023/04/13 10:34:08;;;;;;;;;;;;;;;21.97;28.23;94420.28;5096889;28;1898;-58
2023/04/13 10:36:37;;;;;;;;;;;;;;;22.01;29.31;94422.25;5097129;28;1120;-56
2023/04/13 10:39:03;;;;;;;;;;;;;;;22.38;28.64;94412.69;5096937;28;1127;-57
2023/04/13 10:41:29;;;;;;;;;;;;;;;22.27;27.55;94411.75;5097009;28;1612;-56
2023/04/13 10:44:01;;;;;;;;;;;;;;;22.12;28.72;94400.59;5096285;28;1466;-56
2023/04/13 10:46:28;;;;;;;;;;;;;;;22.20;27.75;94413.81;5096275;28;964;-57
2023/04/13 10:48:54;;;;;;;;;;;;;;;22.35;27.49;94408.59;5095627;28;1170;-56
2023/04/13 10:51:20;;;;;;;;;;;;;;;21.86;28.13;94405.72;5095666;28;1008;-56
2023/04/13 10:53:46;;;;;;;;;;;;;;;22.07;28.10;94414.16;5095762;28;1910;-57
2023/04/13 10:56:16;;;;;;;;;;;;;;;22.55;28.68;94402.56;5096287;28;1072;-56
2023/04/13 10:58:50;;;;;;;;;;;;;;;22.49;27.87;94405.50;5096672;28;1074;-56
2023/04/13 11:01:16;;;;;;;;;;;;;;;22.42;28.37;94397.50;5096193;28;1046;-56
2023/04/13 11:03:43;;;;;;;;;;;;;;;22.32;28.88;94398.19;5096205;28;1037;-56
2023/04/13 11:06:11;;;;;;;;;;;;;;;22.33;28.60;94382.66;5096530;28;1036;-57
2023/04/13 11:08:38;;;;;;;;;;;;;;;22.39;28.88;94371.59;5096400;28;1171;-56
2023/04/13 11:11:04;;;;;;;;;;;;;;;22.41;28.45;94377.63;5096166;28;1111;-57
2023/04/13 11:13:31;;;;;;;;;;;;;;;22.35;28.92;94370.47;5094985;28;1099;-57
2023/04/13 11:16:01;;;;;;;;;;;;;;;22.54;28.21;94367.44;5095769;28;1905;-57
2023/04/13 11:18:27;;;;;;;;;;;;;;;22.68;26.95;94378.75;5095819;28;1004;-57
2023/04/13 11:20:54;;;;;;;;;;;;;;;22.06;27.47;94364.34;5096109;28;1016;-56
2023/04/13 11:23:22;;;;;;;;;;;;;;;22.10;28.79;94370.09;5095796;28;1037;-57
2023/04/13 11:25:53;;;;;;;;;;;;;;;22.11;28.45;94369.84;5095806;28;1100;-57
2023/04/13 11:28:23;;;;;;;;;;;;;;;22.28;27.69;94375.28;5095876;28;985;-57
2023/04/13 11:30:53;;;;;;;;;;;;;;;22.35;27.66;94362.31;5095871;28;981;-57
2023/04/13 11:33:23;;;;;;;;;;;;;;;22.63;29.18;94359.59;5095574;28;1108;-57
2023/04/13 11:35:50;;;;;;;;;;;;;;;22.88;27.54;94364.50;5095893;28;1906;-57
2023/04/13 11:38:16;;;;;;;;;;;;;;;22.76;27.31;94365.47;5095587;28;1051;-57
2023/04/13 11:40:44;;;;;;;;;;;;;;;22.84;26.93;94372.38;5095816;28;1304;-57
2023/04/13 11:43:10;;;;;;;;;;;;;;;22.70;27.09;94360.22;5095556;28;1199;-57
2023/04/13 11:45:37;;;;;;;;;;;;;;;22.48;27.65;94346.63;5095324;28;1079;-57
2023/04/13 11:48:05;;;;;;;;;;;;;;;22.69;28.31;94348.53;5095491;28;1037;-57
2023/04/13 11:50:31;;;;;;;;;;;;;;;22.76;27.03;94342.84;5095294;28;1087;-56
2023/04/13 11:52:58;;;;;;;;;;;;;;;22.54;27.70;94337.47;5095384;28;1112;-57
2023/04/13 11:55:24;;;;;;;;;;;;;;;22.72;28.46;94319.94;5095377;28;1906;-58
2023/04/13 11:57:51;;;;;;;;;;;;;;;23.00;28.75;94333.28;5095228;28;1104;-58
2023/04/13 12:00:22;;;;;;;;;;;;;;;22.89;27.73;94344.34;5094954;28;1123;-58
2023/04/13 12:02:52;;;;;;;;;;;;;;;22.85;28.45;94335.88;5095270;28;1988;-58
2023/04/13 12:05:21;;;;;;;;;;;;;;;22.68;27.40;94335.16;5095057;28;1040;-58
2023/04/13 12:07:47;;;;;;;;;;;;;;;22.75;29.11;94325.69;5095150;28;1035;-58
2023/04/13 12:10:23;;;;;;;;;;;;;;;22.96;29.61;94329.44;5094375;28;972;-58
2023/04/13 12:12:57;;;;;;;;;;;;;;;23.09;28.72;94321.97;5094822;28;1019;-57
2023/04/13 12:15:26;;;;;;;;;;;;;;;22.95;27.80;94332.41;5094838;28;1965;-57
2023/04/13 12:17:56;;;;;;;;;;;;;;;22.74;26.91;94342.28;5095008;28;952;-57
2023/04/13 12:20:23;;;;;;;;;;;;;;;22.69;28.85;94328.59;5094660;28;1124;-57
2023/04/13 12:22:49;;;;;;;;;;;;;;;22.81;28.50;94327.38;5094772;28;1068;-58
2023/04/13 12:25:19;;;;;;;;;;;;;;;22.89;28.82;94326.09;5093673;28;1059;-57
2023/04/13 12:27:47;;;;;;;;;;;;;;;22.74;29.11;94318.59;5094921;28;953;-57
2023/04/13 12:30:14;;;;;;;;;;;;;;;22.77;29.49;94328.97;5094399;28;1119;-58
2023/04/13 12:32:45;;;;;;;;;;;;;;;22.95;29.09;94327.78;5094719;28;984;-58
2023/04/13 12:35:12;;;;;;;;;;;;;;;23.19;26.90;94324.75;5094346;28;1975;-58
2023/04/13 12:37:39;;;;;;;;;;;;;;;23.20;27.68;94318.22;5094567;28;1032;-57
2023/04/13 12:40:08;;;;;;;;;;;;;;;23.08;27.66;94331.19;5094440;28;1024;-57
2023/04/13 12:42:34;;;;;;;;;;;;;;;23.00;27.89;94322.38;5093079;28;1304;-58
2023/04/13 12:45:00;;;;;;;;;;;;;;;22.97;27.43;94319.34;5094598;28;1058;-58
2023/04/13 12:47:26;;;;;;;;;;;;;;;22.97;27.67;94314.75;5094488;28;973;-58
2023/04/13 12:49:52;;;;;;;;;;;;;;;23.18;27.69;94320.38;5094205;28;1135;-58
2023/04/13 12:52:18;;;;;;;;;;;;;;;23.43;28.05;94319.78;5094410;28;1027;-58
2023/04/13 12:54:44;;;;;;;;;;;;;;;23.29;27.66;94318.56;5093940;28;1910;-58
2023/04/13 12:57:11;;;;;;;;;;;;;;;23.04;28.26;94311.81;5093958;28;1887;-58
2023/04/13 12:59:37;;;;;;;;;;;;;;;22.92;28.92;94313.88;5093963;28;1338;-58
2023/04/13 13:02:03;;;;;;;;;;;;;;;22.95;28.17;94307.88;5094372;28;1039;-58
2023/04/13 13:04:29;;;;;;;;;;;;;;;23.14;28.89;94306.44;5094290;28;1977;-58